createdAt,value
2019-05-22T00:00:17.450Z,11.50
2019-05-22T00:02:47.753Z,11.53
2019-05-22T00:05:17.722Z,11.66
2019-05-22T00:07:46.975Z,11.54
2019-05-22T00:10:20.223Z,11.37
2019-05-22T00:12:49.559Z,11.37
2019-05-22T00:15:18.754Z,11.28
2019-05-22T00:17:49.161Z,11.29
2019-05-22T00:20:19.790Z,11.41
2019-05-22T00:22:48.140Z,11.27
2019-05-22T00:25:23.932Z,11.29
2019-05-22T00:27:53.781Z,11.34
2019-05-22T00:30:23.781Z,11.40
2019-05-22T00:32:52.342Z,11.37
2019-05-22T00:35:21.753Z,11.25
2019-05-22T00:37:51.075Z,11.17
2019-05-22T00:40:20.497Z,11.19
2019-05-22T00:43:03.429Z,11.17
2019-05-22T00:45:22.377Z,11.25
2019-05-22T00:47:52.305Z,11.00
2019-05-22T00:50:30.698Z,11.10
2019-05-22T00:53:05.062Z,11.10
2019-05-22T00:55:41.389Z,11.13
2019-05-22T00:58:26.619Z,11.18
2019-05-22T01:01:01.378Z,11.07
2019-05-22T01:03:31.987Z,11.03
2019-05-22T01:06:01.403Z,11.11
2019-05-22T01:08:29.681Z,11.09
2019-05-22T01:11:00.990Z,11.22
2019-05-22T01:13:30.660Z,11.10
2019-05-22T01:15:59.403Z,10.99
2019-05-22T01:18:28.370Z,10.97
2019-05-22T01:20:59.118Z,11.01
2019-05-22T01:23:30.094Z,10.99
2019-05-22T01:26:00.489Z,10.93
2019-05-22T01:28:30.129Z,10.99
2019-05-22T01:31:02.889Z,10.97
2019-05-22T01:33:32.872Z,11.04
2019-05-22T01:36:02.795Z,11.20
2019-05-22T01:38:32.701Z,10.94
2019-05-22T01:41:05.810Z,11.04
2019-05-22T01:43:34.941Z,11.05
2019-05-22T01:46:03.892Z,11.12
2019-05-22T01:48:37.383Z,11.00
2019-05-22T01:51:07.108Z,11.00
2019-05-22T01:53:42.019Z,11.03
2019-05-22T01:56:12.220Z,10.99
2019-05-22T01:58:42.814Z,11.04
2019-05-22T02:01:16.940Z,11.00
2019-05-22T02:03:47.044Z,11.07
2019-05-22T02:06:17.853Z,11.05
2019-05-22T02:08:53.246Z,10.96
2019-05-22T02:11:23.263Z,10.96
2019-05-22T02:13:54.997Z,10.90
2019-05-22T02:16:24.041Z,10.83
2019-05-22T02:18:52.498Z,10.91
2019-05-22T02:21:21.640Z,10.89
2019-05-22T02:23:49.922Z,10.92
2019-05-22T02:26:19.766Z,10.86
2019-05-22T02:28:48.800Z,10.92
2019-05-22T02:31:18.714Z,10.91
2019-05-22T02:34:03.469Z,10.86
2019-05-22T02:36:32.785Z,10.88
2019-05-22T02:39:01.142Z,10.90
2019-05-22T02:41:42.113Z,10.94
2019-05-22T02:44:10.676Z,10.95
2019-05-22T02:46:39.247Z,10.85
2019-05-22T02:49:09.530Z,10.80
2019-05-22T02:51:37.933Z,10.86
2019-05-22T02:54:06.920Z,10.84
2019-05-22T02:56:36.067Z,10.89
2019-05-22T02:59:07.555Z,10.88
2019-05-22T03:01:37.037Z,10.82
2019-05-22T03:04:05.668Z,10.82
2019-05-22T03:06:35.657Z,10.80
2019-05-22T03:09:10.758Z,10.83
2019-05-22T03:11:42.535Z,10.79
2019-05-22T03:14:12.492Z,10.77
2019-05-22T03:16:56.263Z,10.69
2019-05-22T03:19:40.403Z,10.75
2019-05-22T03:22:27.571Z,10.65
2019-05-22T03:24:57.861Z,10.65
2019-05-22T03:27:43.988Z,10.64
2019-05-22T03:30:27.711Z,10.74
2019-05-22T03:32:56.979Z,10.81
2019-05-22T03:35:26.256Z,10.73
2019-05-22T03:37:56.221Z,10.83
2019-05-22T03:40:26.515Z,10.77
2019-05-22T03:42:55.247Z,10.74
2019-05-22T03:45:23.607Z,10.82
2019-05-22T03:47:52.948Z,10.99
2019-05-22T03:50:22.814Z,10.83
2019-05-22T03:52:51.814Z,10.89
2019-05-22T03:55:20.982Z,10.77
2019-05-22T03:57:49.722Z,10.81
2019-05-22T04:00:19.598Z,10.83
2019-05-22T04:02:53.723Z,10.83
2019-05-22T04:05:23.160Z,10.76
2019-05-22T04:07:53.677Z,10.82
2019-05-22T04:10:23.856Z,10.71
2019-05-22T04:12:53.676Z,10.87
2019-05-22T04:15:23.328Z,10.93
2019-05-22T04:17:52.368Z,10.79
2019-05-22T04:20:20.878Z,10.66
2019-05-22T04:22:51.069Z,10.71
2019-05-22T04:25:19.429Z,10.70
2019-05-22T04:27:47.734Z,10.73
2019-05-22T04:30:17.935Z,10.65
2019-05-22T04:32:46.489Z,10.72
2019-05-22T04:35:17.308Z,10.66
2019-05-22T04:37:47.283Z,10.75
2019-05-22T04:40:25.558Z,10.76
2019-05-22T04:42:54.580Z,10.86
2019-05-22T04:45:24.773Z,10.80
2019-05-22T04:47:58.494Z,10.83
2019-05-22T04:50:29.047Z,10.71
2019-05-22T04:52:57.794Z,10.71
2019-05-22T04:55:26.948Z,10.78
2019-05-22T04:57:55.386Z,10.69
2019-05-22T05:00:23.906Z,10.77
2019-05-22T05:02:53.096Z,10.74
2019-05-22T05:05:24.518Z,10.75
2019-05-22T05:07:53.778Z,10.87
2019-05-22T05:10:22.348Z,10.90
2019-05-22T05:12:50.846Z,10.97
2019-05-22T05:15:19.108Z,10.85
2019-05-22T05:17:47.439Z,10.72
2019-05-22T05:20:22.583Z,10.70
2019-05-22T05:22:47.473Z,10.71
2019-05-22T05:25:18.198Z,10.71
2019-05-22T05:27:47.539Z,10.71
2019-05-22T05:30:18.241Z,10.79
2019-05-22T05:32:47.576Z,10.87
2019-05-22T05:35:17.650Z,10.92
2019-05-22T05:37:46.515Z,10.89
2019-05-22T05:40:20.905Z,10.88
2019-05-22T05:42:49.955Z,10.82
2019-05-22T05:45:18.335Z,10.74
2019-05-22T05:47:46.683Z,10.82
2019-05-22T05:50:14.996Z,10.81
2019-05-22T05:52:43.979Z,10.77
2019-05-22T05:55:12.834Z,10.91
2019-05-22T05:57:53.633Z,10.87
2019-05-22T06:00:44.497Z,10.81
2019-05-22T06:03:29.880Z,10.75
2019-05-22T06:05:58.908Z,10.76
2019-05-22T06:08:27.199Z,10.76
2019-05-22T06:11:03.228Z,10.81
2019-05-22T06:13:31.995Z,10.80
2019-05-22T06:16:11.113Z,10.72
2019-05-22T06:18:39.854Z,10.78
2019-05-22T06:21:08.631Z,10.86
2019-05-22T06:23:42.209Z,10.83
2019-05-22T06:26:13.388Z,10.66
2019-05-22T06:28:42.341Z,10.73
2019-05-22T06:31:38.027Z,10.75
2019-05-22T06:34:06.875Z,10.75
2019-05-22T06:36:36.785Z,10.87
2019-05-22T06:39:09.051Z,10.72
2019-05-22T06:41:38.542Z,10.83
2019-05-22T06:44:35.302Z,10.76
2019-05-22T06:47:04.911Z,10.75
2019-05-22T06:49:35.140Z,10.78
2019-05-22T06:52:04.472Z,10.88
2019-05-22T06:54:33.019Z,10.94
2019-05-22T06:57:01.462Z,10.79
2019-05-22T06:59:29.833Z,10.82
2019-05-22T07:02:01.706Z,10.84
2019-05-22T07:04:29.774Z,10.92
2019-05-22T07:06:58.566Z,10.72
2019-05-22T07:09:28.086Z,10.70
2019-05-22T07:11:58.007Z,10.84
2019-05-22T07:14:27.123Z,10.77
2019-05-22T07:16:55.992Z,10.89
2019-05-22T07:19:24.765Z,10.80
2019-05-22T07:21:53.242Z,10.72
2019-05-22T07:24:22.688Z,10.76
2019-05-22T07:26:52.444Z,10.73
2019-05-22T07:29:20.985Z,10.75
2019-05-22T07:31:49.352Z,10.74
2019-05-22T07:34:18.581Z,10.70
2019-05-22T07:36:46.886Z,10.69
2019-05-22T07:39:15.230Z,10.69
2019-05-22T07:41:43.520Z,10.79
2019-05-22T07:44:11.817Z,10.89
2019-05-22T07:46:40.546Z,10.79
2019-05-22T07:49:09.010Z,10.64
2019-05-22T07:51:50.534Z,10.76
2019-05-22T07:54:07.379Z,10.70
2019-05-22T07:56:36.469Z,10.77
2019-05-22T07:59:05.303Z,10.65
2019-05-22T08:01:33.629Z,10.69
2019-05-22T08:04:02.889Z,10.73
2019-05-22T08:06:31.356Z,10.74
2019-05-22T08:08:59.925Z,10.86
2019-05-22T08:11:28.383Z,10.80
2019-05-22T08:13:57.732Z,10.90
2019-05-22T08:16:26.582Z,10.68
2019-05-22T08:18:54.897Z,10.79
2019-05-22T08:21:23.872Z,10.69
2019-05-22T08:23:53.878Z,10.80
2019-05-22T08:26:23.805Z,10.66
2019-05-22T08:28:52.166Z,10.54
2019-05-22T08:31:22.093Z,10.68
2019-05-22T08:33:50.442Z,10.70
2019-05-22T08:36:18.733Z,10.68
2019-05-22T08:38:47.031Z,10.55
2019-05-22T08:41:16.649Z,10.63
2019-05-22T08:44:15.219Z,10.81
2019-05-22T08:46:17.140Z,10.92
2019-05-22T08:48:48.708Z,10.80
2019-05-22T08:51:15.848Z,10.74
2019-05-22T08:53:48.167Z,11.00
2019-05-22T08:56:14.615Z,11.11
2019-05-22T08:58:44.955Z,11.03
2019-05-22T09:01:14.263Z,11.05
2019-05-22T09:03:42.646Z,11.01
2019-05-22T09:06:11.323Z,11.08
2019-05-22T09:08:40.267Z,11.13
2019-05-22T09:11:09.111Z,11.12
2019-05-22T09:13:38.358Z,11.32
2019-05-22T09:16:08.948Z,11.42
2019-05-22T09:18:37.320Z,11.31
2019-05-22T09:21:05.982Z,11.23
2019-05-22T09:23:35.985Z,11.29
2019-05-22T09:26:05.676Z,11.19
2019-05-22T09:28:34.003Z,11.17
2019-05-22T09:31:02.303Z,11.21
2019-05-22T09:33:31.247Z,11.01
2019-05-22T09:35:59.604Z,10.97
2019-05-22T09:38:28.166Z,11.02
2019-05-22T09:40:56.529Z,11.06
2019-05-22T09:43:24.896Z,11.17
2019-05-22T09:45:53.822Z,11.26
2019-05-22T09:48:22.267Z,11.20
2019-05-22T09:50:50.534Z,11.17
2019-05-22T09:53:19.649Z,11.19
2019-05-22T09:55:48.202Z,11.14
2019-05-22T09:58:16.671Z,10.88
2019-05-22T10:00:45.130Z,11.05
2019-05-22T10:03:13.538Z,10.78
2019-05-22T10:05:42.345Z,10.85
2019-05-22T10:08:10.740Z,11.12
2019-05-22T10:10:39.585Z,11.27
2019-05-22T10:13:08.054Z,11.17
2019-05-22T10:15:36.352Z,11.32
2019-05-22T10:18:06.034Z,11.24
2019-05-22T10:20:34.653Z,11.30
2019-05-22T10:23:14.798Z,11.28
2019-05-22T10:25:35.040Z,11.38
2019-05-22T10:28:04.468Z,11.38
2019-05-22T10:30:32.886Z,11.35
2019-05-22T10:33:01.144Z,11.36
2019-05-22T10:35:31.090Z,11.26
2019-05-22T10:37:59.538Z,11.26
2019-05-22T10:40:28.173Z,11.33
2019-05-22T10:42:57.236Z,11.29
2019-05-22T10:45:27.154Z,11.24
2019-05-22T10:47:55.435Z,11.17
2019-05-22T10:50:24.990Z,11.35
2019-05-22T10:52:54.910Z,11.39
2019-05-22T10:55:24.123Z,11.37
2019-05-22T10:57:52.569Z,11.47
2019-05-22T11:00:21.901Z,11.53
2019-05-22T11:02:50.216Z,11.68
2019-05-22T11:05:20.105Z,11.82
2019-05-22T11:07:49.025Z,11.75
2019-05-22T11:10:19.991Z,11.58
2019-05-22T11:12:48.511Z,11.67
2019-05-22T11:15:17.428Z,11.71
2019-05-22T11:17:45.705Z,11.97
2019-05-22T11:20:14.378Z,12.30
2019-05-22T11:22:42.643Z,12.63
2019-05-22T11:25:12.662Z,12.62
2019-05-22T11:27:41.297Z,12.48
2019-05-22T11:30:14.096Z,12.55
2019-05-22T11:32:42.620Z,12.39
2019-05-22T11:35:11.411Z,12.32
2019-05-22T11:37:39.963Z,12.19
2019-05-22T11:40:08.566Z,12.35
2019-05-22T11:42:38.126Z,12.47
2019-05-22T11:45:08.489Z,12.13
2019-05-22T11:47:36.805Z,12.04
2019-05-22T11:50:09.680Z,12.23
2019-05-22T11:52:38.040Z,12.03
2019-05-22T11:55:06.640Z,12.16
2019-05-22T11:57:35.384Z,12.37
2019-05-22T12:00:09.351Z,12.56
2019-05-22T12:02:39.468Z,12.67
2019-05-22T12:05:10.403Z,12.44
2019-05-22T12:07:43.459Z,12.29
2019-05-22T12:10:12.550Z,12.37
2019-05-22T12:12:41.392Z,12.35
2019-05-22T12:15:10.402Z,12.59
2019-05-22T12:17:39.239Z,12.68
2019-05-22T12:20:09.846Z,12.60
2019-05-22T12:22:38.495Z,12.55
2019-05-22T12:25:09.381Z,12.36
2019-05-22T12:27:37.681Z,12.38
2019-05-22T12:30:08.979Z,12.39
2019-05-22T12:32:38.042Z,12.34
2019-05-22T12:35:07.207Z,12.15
2019-05-22T12:37:35.680Z,12.42
2019-05-22T12:40:07.919Z,12.72
2019-05-22T12:42:36.377Z,12.97
2019-05-22T12:45:09.604Z,12.70
2019-05-22T12:47:38.301Z,12.87
2019-05-22T12:50:08.114Z,12.63
2019-05-22T12:52:36.591Z,12.58
2019-05-22T12:55:06.198Z,12.40
2019-05-22T12:57:34.578Z,12.64
2019-05-22T13:00:04.722Z,12.73
2019-05-22T13:02:34.773Z,12.72
2019-05-22T13:05:03.080Z,12.62
2019-05-22T13:07:31.628Z,12.37
2019-05-22T13:09:59.917Z,12.23
2019-05-22T13:12:28.466Z,12.29
2019-05-22T13:15:08.836Z,12.33
2019-05-22T13:17:27.808Z,12.41
2019-05-22T13:19:56.797Z,12.55
2019-05-22T13:22:26.401Z,12.48
2019-05-22T13:24:55.207Z,12.45
2019-05-22T13:27:23.579Z,12.48
2019-05-22T13:29:52.449Z,12.34
2019-05-22T13:32:21.567Z,12.29
2019-05-22T13:34:51.089Z,12.42
2019-05-22T13:37:19.430Z,12.31
2019-05-22T13:39:47.719Z,12.41
2019-05-22T13:42:15.993Z,12.36
2019-05-22T13:44:44.372Z,12.18
2019-05-22T13:47:13.125Z,12.06
2019-05-22T13:49:42.615Z,11.96
2019-05-22T13:52:11.845Z,12.02
2019-05-22T13:54:40.301Z,12.19
2019-05-22T13:57:09.135Z,12.09
2019-05-22T13:59:37.805Z,12.22
2019-05-22T14:02:06.167Z,12.17
2019-05-22T14:04:34.644Z,12.23
2019-05-22T14:07:03.295Z,12.24
2019-05-22T14:09:32.426Z,12.31
2019-05-22T14:12:00.794Z,12.23
2019-05-22T14:14:29.234Z,12.36
2019-05-22T14:16:57.509Z,12.23
2019-05-22T14:19:25.809Z,12.35
2019-05-22T14:21:54.192Z,12.38
2019-05-22T14:24:22.499Z,12.37
2019-05-22T14:26:50.912Z,12.67
2019-05-22T14:29:19.264Z,12.64
2019-05-22T14:31:47.551Z,12.52
2019-05-22T14:34:16.018Z,12.70
2019-05-22T14:36:44.762Z,12.89
2019-05-22T14:39:13.976Z,12.66
2019-05-22T14:41:42.359Z,12.73
2019-05-22T14:44:10.881Z,12.75
2019-05-22T14:46:39.240Z,12.75
2019-05-22T14:49:07.534Z,13.24
2019-05-22T14:51:35.808Z,13.72
2019-05-22T14:54:04.977Z,13.94
2019-05-22T14:56:33.605Z,13.87
2019-05-22T14:59:02.127Z,14.22
2019-05-22T15:01:30.474Z,14.35
2019-05-22T15:03:58.752Z,14.10
2019-05-22T15:06:27.408Z,13.93
2019-05-22T15:08:55.669Z,13.67
2019-05-22T15:11:23.937Z,13.56
2019-05-22T15:13:52.499Z,13.63
2019-05-22T15:16:21.357Z,13.93
2019-05-22T15:18:49.638Z,14.22
2019-05-22T15:21:18.311Z,14.13
2019-05-22T15:23:47.695Z,14.17
2019-05-22T15:26:16.108Z,13.98
2019-05-22T15:28:44.492Z,14.02
2019-05-22T15:31:12.808Z,14.02
2019-05-22T15:33:42.272Z,13.88
2019-05-22T15:36:12.662Z,13.84
2019-05-22T15:38:42.239Z,13.96
2019-05-22T15:41:10.834Z,13.83
2019-05-22T15:43:40.944Z,13.66
2019-05-22T15:46:10.165Z,13.61
2019-05-22T15:48:39.638Z,13.67
2019-05-22T15:51:09.927Z,13.88
2019-05-22T15:53:39.553Z,13.78
2019-05-22T15:56:09.316Z,13.76
2019-05-22T15:58:41.193Z,13.86
2019-05-22T16:01:10.926Z,13.98
2019-05-22T16:03:41.036Z,13.91
2019-05-22T16:06:10.505Z,13.95
2019-05-22T16:08:38.950Z,14.03
2019-05-22T16:11:09.161Z,14.11
2019-05-22T16:13:39.128Z,14.03
2019-05-22T16:16:09.585Z,14.00
2019-05-22T16:18:38.249Z,14.08
2019-05-22T16:21:09.018Z,13.94
2019-05-22T16:23:38.306Z,13.78
2019-05-22T16:26:07.986Z,13.77
2019-05-22T16:28:38.570Z,13.80
2019-05-22T16:31:10.336Z,13.68
2019-05-22T16:33:41.539Z,13.83
2019-05-22T16:36:10.203Z,13.78
2019-05-22T16:38:39.034Z,13.61
2019-05-22T16:41:07.693Z,13.58
2019-05-22T16:43:48.868Z,13.57
2019-05-22T16:46:07.788Z,13.62
2019-05-22T16:48:37.065Z,13.69
2019-05-22T16:51:06.713Z,13.71
2019-05-22T16:53:35.331Z,13.74
2019-05-22T16:56:03.701Z,13.68
2019-05-22T16:58:32.427Z,13.51
2019-05-22T17:01:00.712Z,13.60
2019-05-22T17:03:29.195Z,13.58
2019-05-22T17:05:57.758Z,13.43
2019-05-22T17:08:28.132Z,13.43
2019-05-22T17:10:59.422Z,13.54
2019-05-22T17:13:30.069Z,13.55
2019-05-22T17:15:58.683Z,13.47
2019-05-22T17:18:45.569Z,13.49
2019-05-22T17:20:58.889Z,13.32
2019-05-22T17:23:27.849Z,13.36
2019-05-22T17:25:58.023Z,13.26
2019-05-22T17:28:27.084Z,13.07
2019-05-22T17:30:56.253Z,13.16
2019-05-22T17:33:24.552Z,13.22
2019-05-22T17:35:53.272Z,13.16
2019-05-22T17:38:23.014Z,13.16
2019-05-22T17:40:52.043Z,13.06
2019-05-22T17:43:21.264Z,12.99
2019-05-22T17:45:49.785Z,13.01
2019-05-22T17:48:18.932Z,12.94
2019-05-22T17:50:47.366Z,12.87
2019-05-22T17:53:17.719Z,12.82
2019-05-22T17:55:47.005Z,12.95
2019-05-22T17:58:15.548Z,12.97
2019-05-22T18:00:51.361Z,13.00
2019-05-22T18:03:19.926Z,13.05
2019-05-22T18:05:48.682Z,13.14
2019-05-22T18:08:17.830Z,13.01
2019-05-22T18:10:48.561Z,13.07
2019-05-22T18:13:17.092Z,13.11
2019-05-22T18:15:46.430Z,12.92
2019-05-22T18:18:15.049Z,12.64
2019-05-22T18:20:44.322Z,12.51
2019-05-22T18:23:12.665Z,12.49
2019-05-22T18:25:41.290Z,12.40
2019-05-22T18:28:10.639Z,12.40
2019-05-22T18:30:40.619Z,12.05
2019-05-22T18:33:09.763Z,11.99
2019-05-22T18:35:38.333Z,12.00
2019-05-22T18:38:06.743Z,11.99
2019-05-22T18:40:35.204Z,11.99
2019-05-22T18:43:03.475Z,12.04
2019-05-22T18:45:35.012Z,11.86
2019-05-22T18:48:04.354Z,11.78
2019-05-22T18:50:32.815Z,11.75
2019-05-22T18:53:01.133Z,11.90
2019-05-22T18:55:30.521Z,11.87
2019-05-22T18:57:58.967Z,11.59
2019-05-22T19:00:28.894Z,11.65
2019-05-22T19:02:57.539Z,11.70
2019-05-22T19:05:28.022Z,11.68
2019-05-22T19:07:56.312Z,11.73
2019-05-22T19:10:24.667Z,11.66
2019-05-22T19:12:53.018Z,11.56
2019-05-22T19:15:22.671Z,11.52
2019-05-22T19:17:51.094Z,11.47
2019-05-22T19:20:19.365Z,11.43
2019-05-22T19:22:59.156Z,11.34
2019-05-22T19:25:18.241Z,11.28
2019-05-22T19:27:46.601Z,11.06
2019-05-22T19:30:19.053Z,11.06
2019-05-22T19:32:47.957Z,11.11
2019-05-22T19:35:16.235Z,11.07
2019-05-22T19:37:45.879Z,11.07
2019-05-22T19:40:16.996Z,10.96
2019-05-22T19:42:45.302Z,10.89
2019-05-22T19:45:14.293Z,10.83
2019-05-22T19:47:49.817Z,10.86
2019-05-22T19:50:23.080Z,10.76
2019-05-22T19:52:51.855Z,10.77
2019-05-22T19:55:21.487Z,10.70
2019-05-22T19:57:51.184Z,10.66
2019-05-22T20:00:19.589Z,10.69
2019-05-22T20:02:50.690Z,10.64
2019-05-22T20:05:18.594Z,10.49
2019-05-22T20:07:47.321Z,10.35
2019-05-22T20:10:15.591Z,10.45
2019-05-22T20:12:43.901Z,10.28
2019-05-22T20:15:12.325Z,10.37
2019-05-22T20:17:40.927Z,10.39
2019-05-22T20:20:11.227Z,10.32
2019-05-22T20:22:40.035Z,10.30
2019-05-22T20:25:08.756Z,10.27
2019-05-22T20:27:37.114Z,10.27
2019-05-22T20:30:07.132Z,10.25
2019-05-22T20:32:36.053Z,10.23
2019-05-22T20:35:05.850Z,10.19
2019-05-22T20:37:34.611Z,10.22
2019-05-22T20:40:03.234Z,10.20
2019-05-22T20:42:32.959Z,10.15
2019-05-22T20:45:01.884Z,10.08
2019-05-22T20:47:31.845Z,10.04
2019-05-22T20:50:01.514Z,9.79
2019-05-22T20:52:30.663Z,9.82
2019-05-22T20:54:59.429Z,9.65
2019-05-22T20:57:28.209Z,9.64
2019-05-22T20:59:56.636Z,9.51
2019-05-22T21:02:26.616Z,9.54
2019-05-22T21:04:57.507Z,9.44
2019-05-22T21:07:34.770Z,9.44
2019-05-22T21:10:03.882Z,9.43
2019-05-22T21:12:35.747Z,9.42
2019-05-22T21:15:03.482Z,9.36
2019-05-22T21:17:31.749Z,9.42
2019-05-22T21:20:00.683Z,9.40
2019-05-22T21:22:32.015Z,9.34
2019-05-22T21:25:00.246Z,9.34
2019-05-22T21:27:28.997Z,9.29
2019-05-22T21:29:57.563Z,9.28
2019-05-22T21:32:25.920Z,9.27
2019-05-22T21:34:55.176Z,9.27
2019-05-22T21:37:24.402Z,9.30
2019-05-22T21:39:52.850Z,9.28
2019-05-22T21:42:21.486Z,9.23
2019-05-22T21:44:50.036Z,9.11
2019-05-22T21:47:18.600Z,9.09
2019-05-22T21:49:47.028Z,9.09
2019-05-22T21:52:15.669Z,9.05
2019-05-22T21:54:44.390Z,8.94
2019-05-22T21:57:13.449Z,8.90
2019-05-22T21:59:41.795Z,8.86
2019-05-22T22:02:21.031Z,8.85
2019-05-22T22:04:49.535Z,8.76
2019-05-22T22:07:18.411Z,8.66
2019-05-22T22:09:47.073Z,8.58
2019-05-22T22:12:19.480Z,8.52
2019-05-22T22:14:49.619Z,8.52
2019-05-22T22:17:19.568Z,8.50
2019-05-22T22:19:49.170Z,8.47
2019-05-22T22:22:23.736Z,8.43
2019-05-22T22:24:52.288Z,8.41
2019-05-22T22:27:20.646Z,8.41
2019-05-22T22:29:49.561Z,8.38
2019-05-22T22:32:19.574Z,8.33
2019-05-22T22:34:48.587Z,8.28
2019-05-22T22:37:17.427Z,8.21
2019-05-22T22:39:47.494Z,8.19
2019-05-22T22:42:17.082Z,8.13
2019-05-22T22:44:48.050Z,8.09
2019-05-22T22:47:18.458Z,8.08
2019-05-22T22:49:48.064Z,8.04
2019-05-22T22:52:17.328Z,7.98
2019-05-22T22:54:46.091Z,7.96
2019-05-22T22:57:14.740Z,7.91
2019-05-22T22:59:43.254Z,7.88
2019-05-22T23:02:14.252Z,7.86
2019-05-22T23:04:43.407Z,7.88
2019-05-22T23:07:11.768Z,7.84
2019-05-22T23:09:42.503Z,7.88
2019-05-22T23:12:12.458Z,7.88
2019-05-22T23:14:45.381Z,7.93
2019-05-22T23:17:13.735Z,7.83
2019-05-22T23:19:42.680Z,7.80
2019-05-22T23:22:19.482Z,7.82
2019-05-22T23:24:49.431Z,7.86
2019-05-22T23:27:19.252Z,7.72
2019-05-22T23:29:48.195Z,7.77
2019-05-22T23:32:18.377Z,7.79
2019-05-22T23:34:47.265Z,7.82
2019-05-22T23:37:17.462Z,7.86
2019-05-22T23:39:46.178Z,7.82
2019-05-22T23:42:17.442Z,7.80
2019-05-22T23:44:46.194Z,7.73
2019-05-22T23:47:15.461Z,7.76
2019-05-22T23:49:43.828Z,7.70
2019-05-22T23:52:13.832Z,7.67
2019-05-22T23:54:43.770Z,7.65
2019-05-22T23:57:13.843Z,7.65
2019-05-22T23:59:42.432Z,7.60
